sensor_id;sensor_type;location;lat;lon;timestamp;pressure;altitude;pressure_sealevel;temperature;humidity
46347;BME280;32057;47.830;19.046;2023-06-14T00:01:36;99999.09;;;11.34;100.00
46347;BME280;32057;47.830;19.046;2023-06-14T00:04:03;100005.94;;;11.28;100.00
46347;BME280;32057;47.830;19.046;2023-06-14T00:06:30;99999.81;;;11.26;100.00
46347;BME280;32057;47.830;19.046;2023-06-14T00:08:56;100005.84;;;11.22;100.00
46347;BME280;32057;47.830;19.046;2023-06-14T00:11:21;100004.97;;;11.20;100.00
46347;BME280;32057;47.830;19.046;2023-06-14T00:13:46;100004.84;;;11.09;100.00
46347;BME280;32057;47.830;19.046;2023-06-14T00:16:12;100006.41;;;10.98;100.00
46347;BME280;32057;47.830;19.046;2023-06-14T00:18:37;100011.50;;;10.90;100.00
46347;BME280;32057;47.830;19.046;2023-06-14T00:21:04;100008.78;;;10.82;100.00
46347;BME280;32057;47.830;19.046;2023-06-14T00:23:29;100011.38;;;10.79;100.00
46347;BME280;32057;47.830;19.046;2023-06-14T00:25:55;100009.66;;;10.81;100.00
46347;BME280;32057;47.830;19.046;2023-06-14T00:28:21;100008.75;;;10.77;100.00
46347;BME280;32057;47.830;19.046;2023-06-14T00:30:46;100004.41;;;10.78;100.00
46347;BME280;32057;47.830;19.046;2023-06-14T00:33:12;100009.66;;;10.81;100.00
46347;BME280;32057;47.830;19.046;2023-06-14T00:35:37;100013.94;;;10.77;100.00
46347;BME280;32057;47.830;19.046;2023-06-14T00:38:03;100008.66;;;10.71;100.00
46347;BME280;32057;47.830;19.046;2023-06-14T00:40:29;100010.50;;;10.79;100.00
46347;BME280;32057;47.830;19.046;2023-06-14T00:42:54;100007.91;;;10.80;100.00
46347;BME280;32057;47.830;19.046;2023-06-14T00:45:19;100013.09;;;10.80;100.00
46347;BME280;32057;47.830;19.046;2023-06-14T00:47:46;100011.50;;;10.88;100.00
46347;BME280;32057;47.830;19.046;2023-06-14T00:50:12;100011.38;;;10.79;100.00
46347;BME280;32057;47.830;19.046;2023-06-14T00:52:39;100014.00;;;10.81;100.00
46347;BME280;32057;47.830;19.046;2023-06-14T00:55:05;100009.59;;;10.75;100.00
46347;BME280;32057;47.830;19.046;2023-06-14T00:57:31;100013.81;;;10.67;100.00
46347;BME280;32057;47.830;19.046;2023-06-14T00:59:57;100011.91;;;10.58;100.00
46347;BME280;32057;47.830;19.046;2023-06-14T01:02:23;100005.72;;;10.50;100.00
46347;BME280;32057;47.830;19.046;2023-06-14T01:04:50;100010.28;;;10.63;100.00
46347;BME280;32057;47.830;19.046;2023-06-14T01:10:31;100008.78;;;10.82;100.00
46347;BME280;32057;47.830;19.046;2023-06-14T01:15:44;100002.91;;;10.95;100.00
46347;BME280;32057;47.830;19.046;2023-06-14T01:18:10;100002.97;;;10.99;100.00
46347;BME280;32057;47.830;19.046;2023-06-14T01:20:44;100006.47;;;11.01;100.00
46347;BME280;32057;47.830;19.046;2023-06-14T01:23:16;100004.56;;;10.89;100.00
46347;BME280;32057;47.830;19.046;2023-06-14T01:25:42;100005.31;;;10.79;100.00
46347;BME280;32057;47.830;19.046;2023-06-14T01:28:10;100007.72;;;10.68;100.00
46347;BME280;32057;47.830;19.046;2023-06-14T01:30:39;100001.69;;;10.69;100.00
46347;BME280;32057;47.830;19.046;2023-06-14T01:33:12;100013.06;;;10.75;100.00
46347;BME280;32057;47.830;19.046;2023-06-14T01:35:39;100006.16;;;10.79;100.00
46347;BME280;32057;47.830;19.046;2023-06-14T01:38:06;100000.19;;;10.86;100.00
46347;BME280;32057;47.830;19.046;2023-06-14T01:40:33;100002.78;;;10.85;100.00
46347;BME280;32057;47.830;19.046;2023-06-14T01:42:59;100007.97;;;10.86;100.00
46347;BME280;32057;47.830;19.046;2023-06-14T01:45:26;100001.09;;;10.88;100.00
46347;BME280;32057;47.830;19.046;2023-06-14T01:47:52;100004.53;;;10.87;100.00
46347;BME280;32057;47.830;19.046;2023-06-14T01:50:20;100004.53;;;10.87;100.00
46347;BME280;32057;47.830;19.046;2023-06-14T01:52:45;100003.59;;;10.81;100.00
46347;BME280;32057;47.830;19.046;2023-06-14T01:55:11;100000.81;;;10.70;100.00
46347;BME280;32057;47.830;19.046;2023-06-14T01:57:36;100005.75;;;10.51;100.00
46347;BME280;32057;47.830;19.046;2023-06-14T02:00:03;100004.75;;;10.42;100.00
46347;BME280;32057;47.830;19.046;2023-06-14T02:02:29;100005.47;;;10.33;100.00
46347;BME280;32057;47.830;19.046;2023-06-14T02:04:54;100000.84;;;10.18;100.00
46347;BME280;32057;47.830;19.046;2023-06-14T02:07:23;100004.22;;;10.11;100.00
46347;BME280;32057;47.830;19.046;2023-06-14T02:09:49;100005.22;;;10.19;100.00
46347;BME280;32057;47.830;19.046;2023-06-14T02:12:14;100001.84;;;10.25;100.00
46347;BME280;32057;47.830;19.046;2023-06-14T02:14:40;100001.91;;;10.29;100.00
46347;BME280;32057;47.830;19.046;2023-06-14T02:17:05;100004.66;;;10.37;100.00
46347;BME280;32057;47.830;19.046;2023-06-14T02:19:31;100009.84;;;10.35;100.00
46347;BME280;32057;47.830;19.046;2023-06-14T02:21:57;100006.06;;;10.18;100.00
46347;BME280;32057;47.830;19.046;2023-06-14T02:24:22;100009.34;;;10.08;100.00
46347;BME280;32057;47.830;19.046;2023-06-14T02:26:49;99999.84;;;10.10;100.00
46347;BME280;32057;47.830;19.046;2023-06-14T02:29:14;100001.63;;;10.12;100.00
46347;BME280;32057;47.830;19.046;2023-06-14T02:31:41;100006.13;;;10.21;100.00
46347;BME280;32057;47.830;19.046;2023-06-14T02:34:06;100011.44;;;10.29;100.00
46347;BME280;32057;47.830;19.046;2023-06-14T02:36:34;100002.88;;;10.33;100.00
46347;BME280;32057;47.830;19.046;2023-06-14T02:38:59;100004.59;;;10.34;100.00
46347;BME280;32057;47.830;19.046;2023-06-14T02:41:25;100014.22;;;10.38;100.00
46347;BME280;32057;47.830;19.046;2023-06-14T02:43:52;100004.75;;;10.42;100.00
46347;BME280;32057;47.830;19.046;2023-06-14T02:46:18;100008.84;;;10.29;100.00
46347;BME280;32057;47.830;19.046;2023-06-14T02:48:43;100001.97;;;10.31;100.00
46347;BME280;32057;47.830;19.046;2023-06-14T02:51:09;99995.16;;;10.39;100.00
46347;BME280;32057;47.830;19.046;2023-06-14T02:53:35;99998.66;;;10.41;100.00
46347;BME280;32057;47.830;19.046;2023-06-14T02:56:01;100001.19;;;10.38;100.00
46347;BME280;32057;47.830;19.046;2023-06-14T02:58:29;99996.66;;;10.25;100.00
46347;BME280;32057;47.830;19.046;2023-06-14T03:00:54;99997.22;;;10.08;100.00
46347;BME280;32057;47.830;19.046;2023-06-14T03:03:20;99997.81;;;9.92;100.00
46347;BME280;32057;47.830;19.046;2023-06-14T03:05:47;99996.91;;;9.90;100.00
46347;BME280;32057;47.830;19.046;2023-06-14T03:08:15;99996.09;;;9.94;100.00
46347;BME280;32057;47.830;19.046;2023-06-14T03:10:51;100001.41;;;10.00;100.00
46347;BME280;32057;47.830;19.046;2023-06-14T03:13:16;99998.91;;;10.06;100.00
46347;BME280;32057;47.830;19.046;2023-06-14T03:15:42;100003.44;;;10.16;100.00
46347;BME280;32057;47.830;19.046;2023-06-14T03:18:08;100006.06;;;10.18;100.00
46347;BME280;32057;47.830;19.046;2023-06-14T03:20:35;100009.56;;;10.20;100.00
46347;BME280;32057;47.830;19.046;2023-06-14T03:23:01;100001.50;;;10.06;100.00
46347;BME280;32057;47.830;19.046;2023-06-14T03:25:28;99999.72;;;10.01;100.00
46347;BME280;32057;47.830;19.046;2023-06-14T03:27:55;100003.19;;;10.01;100.00
46347;BME280;32057;47.830;19.046;2023-06-14T03:30:21;100004.91;;;10.02;100.00
46347;BME280;32057;47.830;19.046;2023-06-14T03:32:47;100003.28;;;10.07;100.00
46347;BME280;32057;47.830;19.046;2023-06-14T03:35:12;100008.31;;;9.98;100.00
46347;BME280;32057;47.830;19.046;2023-06-14T03:37:43;100011.78;;;9.97;100.00
46347;BME280;32057;47.830;19.046;2023-06-14T03:40:09;100004.91;;;10.01;100.00
46347;BME280;32057;47.830;19.046;2023-06-14T03:42:34;100006.78;;;10.09;100.00
46347;BME280;32057;47.830;19.046;2023-06-14T03:45:00;100009.56;;;10.20;100.00
46347;BME280;32057;47.830;19.046;2023-06-14T03:47:25;100010.44;;;10.21;100.00
46347;BME280;32057;47.830;19.046;2023-06-14T03:49:52;100010.28;;;10.11;100.00
46347;BME280;32057;47.830;19.046;2023-06-14T03:52:17;100010.28;;;10.11;100.00
46347;BME280;32057;47.830;19.046;2023-06-14T03:54:43;100012.09;;;10.15;100.00
46347;BME280;32057;47.830;19.046;2023-06-14T03:57:09;100005.19;;;10.17;100.00
46347;BME280;32057;47.830;19.046;2023-06-14T03:59:35;100004.38;;;10.22;100.00
46347;BME280;32057;47.830;19.046;2023-06-14T04:02:02;100010.53;;;10.27;100.00
46347;BME280;32057;47.830;19.046;2023-06-14T04:04:27;100005.41;;;10.30;100.00
46347;BME280;32057;47.830;19.046;2023-06-14T04:06:55;100013.41;;;10.42;100.00
46347;BME280;32057;47.830;19.046;2023-06-14T04:09:23;100017.13;;;10.58;100.00
46347;BME280;32057;47.830;19.046;2023-06-14T04:11:52;100024.19;;;10.65;100.00
46347;BME280;32057;47.830;19.046;2023-06-14T04:14:21;100025.19;;;10.75;100.00
46347;BME280;32057;47.830;19.046;2023-06-14T04:16:48;100030.63;;;10.90;100.00
46347;BME280;32057;47.830;19.046;2023-06-14T04:19:17;100024.69;;;11.02;100.00
46347;BME280;32057;47.830;19.046;2023-06-14T04:21:42;100019.66;;;11.13;100.00
46347;BME280;32057;47.830;19.046;2023-06-14T04:24:08;100031.97;;;11.28;100.00
46347;BME280;32057;47.830;19.046;2023-06-14T04:26:42;100022.53;;;11.34;100.00
46347;BME280;32057;47.830;19.046;2023-06-14T04:29:13;100028.72;;;11.44;100.00
46347;BME280;32057;47.830;19.046;2023-06-14T04:31:43;100034.94;;;11.57;100.00
46347;BME280;32057;47.830;19.046;2023-06-14T04:34:09;100035.94;;;11.70;100.00
46347;BME280;32057;47.830;19.046;2023-06-14T04:36:41;100036.88;;;11.75;100.00
46347;BME280;32057;47.830;19.046;2023-06-14T04:39:17;100042.88;;;11.66;100.00
46347;BME280;32057;47.830;19.046;2023-06-14T04:41:49;100036.84;;;11.73;100.00
46347;BME280;32057;47.830;19.046;2023-06-14T04:44:22;100039.69;;;11.93;100.00
46347;BME280;32057;47.830;19.046;2023-06-14T04:46:56;100031.25;;;12.18;100.00
46347;BME280;32057;47.830;19.046;2023-06-14T04:49:24;100031.41;;;12.38;100.00
46347;BME280;32057;47.830;19.046;2023-06-14T04:51:50;100034.22;;;12.62;100.00
46347;BME280;32057;47.830;19.046;2023-06-14T04:54:23;100035.25;;;12.84;100.00
46347;BME280;32057;47.830;19.046;2023-06-14T04:56:51;100037.97;;;13.03;100.00
46347;BME280;32057;47.830;19.046;2023-06-14T04:59:16;100034.53;;;13.18;100.00
46347;BME280;32057;47.830;19.046;2023-06-14T05:01:42;100040.78;;;13.40;100.00
46347;BME280;32057;47.830;19.046;2023-06-14T05:04:14;100035.63;;;13.57;100.00
46347;BME280;32057;47.830;19.046;2023-06-14T05:06:41;100046.13;;;13.70;100.00
46347;BME280;32057;47.830;19.046;2023-06-14T05:09:07;100040.91;;;13.86;100.00
46347;BME280;32057;47.830;19.046;2023-06-14T05:11:32;100028.75;;;13.92;100.00
46347;BME280;32057;47.830;19.046;2023-06-14T05:13:58;100030.47;;;14.00;100.00
46347;BME280;32057;47.830;19.046;2023-06-14T05:16:23;100036.63;;;14.12;100.00
46347;BME280;32057;47.830;19.046;2023-06-14T05:18:50;100034.88;;;14.24;100.00
46347;BME280;32057;47.830;19.046;2023-06-14T05:21:17;100034.00;;;14.35;100.00
46347;BME280;32057;47.830;19.046;2023-06-14T05:23:44;100032.25;;;14.44;100.00
46347;BME280;32057;47.830;19.046;2023-06-14T05:26:10;100036.63;;;14.62;100.00
46347;BME280;32057;47.830;19.046;2023-06-14T05:28:36;100034.03;;;14.71;100.00
46347;BME280;32057;47.830;19.046;2023-06-14T05:31:01;100034.91;;;14.76;100.00
46347;BME280;32057;47.830;19.046;2023-06-14T05:33:27;100036.66;;;14.74;100.00
46347;BME280;32057;47.830;19.046;2023-06-14T05:35:52;100029.63;;;14.79;100.00
46347;BME280;32057;47.830;19.046;2023-06-14T05:38:18;100027.00;;;14.78;100.00
46347;BME280;32057;47.830;19.046;2023-06-14T05:40:43;100023.53;;;14.76;100.00
46347;BME280;32057;47.830;19.046;2023-06-14T05:43:09;100021.78;;;14.78;100.00
46347;BME280;32057;47.830;19.046;2023-06-14T05:45:34;100025.28;;;14.73;100.00
46347;BME280;32057;47.830;19.046;2023-06-14T05:48:00;100023.50;;;14.82;100.00
46347;BME280;32057;47.830;19.046;2023-06-14T05:50:25;100033.97;;;14.96;100.00
46347;BME280;32057;47.830;19.046;2023-06-14T05:52:50;100033.03;;;15.21;100.00
46347;BME280;32057;47.830;19.046;2023-06-14T05:55:16;100030.34;;;15.37;100.00
46347;BME280;32057;47.830;19.046;2023-06-14T05:57:42;100028.47;;;15.65;100.00
46347;BME280;32057;47.830;19.046;2023-06-14T06:00:08;100026.66;;;15.84;100.00
46347;BME280;32057;47.830;19.046;2023-06-14T06:02:38;100025.63;;;16.06;100.00
46347;BME280;32057;47.830;19.046;2023-06-14T06:05:03;100030.69;;;16.31;100.00
46347;BME280;32057;47.830;19.046;2023-06-14T06:07:29;100025.38;;;16.39;100.00
46347;BME280;32057;47.830;19.046;2023-06-14T06:09:55;100033.16;;;16.51;100.00
46347;BME280;32057;47.830;19.046;2023-06-14T06:12:20;100034.75;;;16.67;100.00
46347;BME280;32057;47.830;19.046;2023-06-14T06:14:46;100034.66;;;16.78;100.00
46347;BME280;32057;47.830;19.046;2023-06-14T06:17:11;100031.13;;;16.79;100.00
46347;BME280;32057;47.830;19.046;2023-06-14T06:19:36;100040.75;;;16.83;100.00
46347;BME280;32057;47.830;19.046;2023-06-14T06:22:02;100034.44;;;17.01;100.00
46347;BME280;32057;47.830;19.046;2023-06-14T06:24:30;100048.25;;;17.22;100.00
46347;BME280;32057;47.830;19.046;2023-06-14T06:26:55;100039.53;;;17.18;100.00
46347;BME280;32057;47.830;19.046;2023-06-14T06:29:20;100044.81;;;17.15;100.00
46347;BME280;32057;47.830;19.046;2023-06-14T06:31:46;100040.22;;;17.36;100.00
46347;BME280;32057;47.830;19.046;2023-06-14T06:34:11;100038.28;;;17.47;100.00
46347;BME280;32057;47.830;19.046;2023-06-14T06:36:37;100032.84;;;17.62;100.00
46347;BME280;32057;47.830;19.046;2023-06-14T06:39:02;100032.59;;;17.81;100.00
46347;BME280;32057;47.830;19.046;2023-06-14T06:41:34;100034.22;;;17.91;100.00
46347;BME280;32057;47.830;19.046;2023-06-14T06:44:02;100027.91;;;18.04;100.00
46347;BME280;32057;47.830;19.046;2023-06-14T06:46:28;100023.28;;;18.19;100.00
46347;BME280;32057;47.830;19.046;2023-06-14T06:48:53;100025.66;;;18.36;100.00
46347;BME280;32057;47.830;19.046;2023-06-14T06:51:19;100029.06;;;18.41;97.95
46347;BME280;32057;47.830;19.046;2023-06-14T06:53:52;100028.09;;;18.48;99.63
46347;BME280;32057;47.830;19.046;2023-06-14T06:56:18;100029.56;;;18.63;100.00
46347;BME280;32057;47.830;19.046;2023-06-14T06:58:43;100027.06;;;18.55;100.00
46347;BME280;32057;47.830;19.046;2023-06-14T07:01:08;100029.53;;;18.66;96.82
46347;BME280;32057;47.830;19.046;2023-06-14T07:03:34;100028.50;;;18.73;100.00
46347;BME280;32057;47.830;19.046;2023-06-14T07:06:00;100025.59;;;18.92;99.77
46347;BME280;32057;47.830;19.046;2023-06-14T07:08:26;100029.25;;;18.83;94.20
46347;BME280;32057;47.830;19.046;2023-06-14T07:10:52;100025.34;;;18.54;95.74
46347;BME280;32057;47.830;19.046;2023-06-14T07:13:17;100030.84;;;18.92;100.00
46347;BME280;32057;47.830;19.046;2023-06-14T07:15:43;100028.09;;;18.98;95.03
46347;BME280;32057;47.830;19.046;2023-06-14T07:18:08;100034.00;;;19.10;95.80
46347;BME280;32057;47.830;19.046;2023-06-14T07:20:34;100033.72;;;19.24;94.57
46347;BME280;32057;47.830;19.046;2023-06-14T07:22:59;100033.69;;;19.27;89.04
46347;BME280;32057;47.830;19.046;2023-06-14T07:25:25;100040.81;;;19.22;92.24
46347;BME280;32057;47.830;19.046;2023-06-14T07:27:51;100038.72;;;19.40;93.63
46347;BME280;32057;47.830;19.046;2023-06-14T07:30:16;100042.50;;;19.25;89.48
46347;BME280;32057;47.830;19.046;2023-06-14T07:32:42;100041.22;;;19.46;89.50
46347;BME280;32057;47.830;19.046;2023-06-14T07:35:08;100032.91;;;19.64;94.46
46347;BME280;32057;47.830;19.046;2023-06-14T07:37:33;100036.81;;;19.45;89.54
46347;BME280;32057;47.830;19.046;2023-06-14T07:39:59;100039.50;;;19.43;92.60
46347;BME280;32057;47.830;19.046;2023-06-14T07:42:24;100045.03;;;19.75;95.48
46347;BME280;32057;47.830;19.046;2023-06-14T07:44:50;100046.69;;;19.79;86.64
46347;BME280;32057;47.830;19.046;2023-06-14T07:47:17;100044.75;;;19.87;85.48
46347;BME280;32057;47.830;19.046;2023-06-14T07:49:43;100035.66;;;20.00;88.71
46347;BME280;32057;47.830;19.046;2023-06-14T07:52:08;100038.00;;;20.13;87.35
46347;BME280;32057;47.830;19.046;2023-06-14T07:54:33;100039.97;;;20.03;87.39
46347;BME280;32057;47.830;19.046;2023-06-14T07:56:59;100042.41;;;20.14;89.02
46347;BME280;32057;47.830;19.046;2023-06-14T07:59:26;100047.91;;;20.40;89.27
46347;BME280;32057;47.830;19.046;2023-06-14T08:01:51;100044.94;;;20.53;85.78
46347;BME280;32057;47.830;19.046;2023-06-14T08:04:17;100044.94;;;20.53;86.42
46347;BME280;32057;47.830;19.046;2023-06-14T08:06:42;100035.34;;;20.50;91.63
46347;BME280;32057;47.830;19.046;2023-06-14T08:09:12;100042.56;;;20.79;95.44
46347;BME280;32057;47.830;19.046;2023-06-14T08:11:37;100043.91;;;20.94;86.27
46347;BME280;32057;47.830;19.046;2023-06-14T08:14:03;100045.28;;;21.09;85.72
46347;BME280;32057;47.830;19.046;2023-06-14T08:16:28;100053.72;;;21.23;88.16
46347;BME280;32057;47.830;19.046;2023-06-14T08:18:55;100040.78;;;21.44;85.60
46347;BME280;32057;47.830;19.046;2023-06-14T08:21:21;100037.06;;;21.51;83.63
46347;BME280;32057;47.830;19.046;2023-06-14T08:23:47;100043.66;;;21.35;77.19
46347;BME280;32057;47.830;19.046;2023-06-14T08:26:12;100044.78;;;21.27;78.92
46347;BME280;32057;47.830;19.046;2023-06-14T08:28:38;100044.44;;;21.38;79.56
46347;BME280;32057;47.830;19.046;2023-06-14T08:31:03;100032.97;;;21.39;82.29
46347;BME280;32057;47.830;19.046;2023-06-14T08:33:29;100037.84;;;21.23;79.99
46347;BME280;32057;47.830;19.046;2023-06-14T08:35:55;100038.00;;;21.17;82.58
46347;BME280;32057;47.830;19.046;2023-06-14T08:38:20;100039.66;;;21.21;85.68
46347;BME280;32057;47.830;19.046;2023-06-14T08:40:50;100035.59;;;21.08;88.50
46347;BME280;32057;47.830;19.046;2023-06-14T08:43:16;100032.28;;;21.01;86.27
46347;BME280;32057;47.830;19.046;2023-06-14T08:45:42;100041.38;;;20.91;80.01
46347;BME280;32057;47.830;19.046;2023-06-14T08:48:07;100038.81;;;20.86;79.69
46347;BME280;32057;47.830;19.046;2023-06-14T08:50:35;100045.91;;;20.86;82.64
46347;BME280;32057;47.830;19.046;2023-06-14T08:53:02;100050.78;;;21.01;86.66
46347;BME280;32057;47.830;19.046;2023-06-14T08:55:29;100051.22;;;20.84;83.73
46347;BME280;32057;47.830;19.046;2023-06-14T08:57:56;100059.66;;;20.99;87.75
46347;BME280;32057;47.830;19.046;2023-06-14T09:00:26;100056.88;;;21.05;86.22
46347;BME280;32057;47.830;19.046;2023-06-14T09:02:52;100058.16;;;20.88;87.65
46347;BME280;32057;47.830;19.046;2023-06-14T09:05:26;100057.25;;;20.91;87.68
46347;BME280;32057;47.830;19.046;2023-06-14T09:07:52;100062.47;;;20.93;87.58
46347;BME280;32057;47.830;19.046;2023-06-14T09:10:22;100058.09;;;20.92;87.35
46347;BME280;32057;47.830;19.046;2023-06-14T09:12:47;100063.25;;;20.96;90.07
46347;BME280;32057;47.830;19.046;2023-06-14T09:15:13;100067.19;;;20.81;92.25
46347;BME280;32057;47.830;19.046;2023-06-14T09:17:40;100062.69;;;20.85;91.23
46347;BME280;32057;47.830;19.046;2023-06-14T09:20:07;100065.41;;;20.82;89.53
46347;BME280;32057;47.830;19.046;2023-06-14T09:22:39;100065.38;;;20.83;92.91
46347;BME280;32057;47.830;19.046;2023-06-14T09:25:05;100064.59;;;20.78;91.59
46347;BME280;32057;47.830;19.046;2023-06-14T09:27:32;100068.91;;;20.82;93.48
46347;BME280;32057;47.830;19.046;2023-06-14T09:29:58;100064.34;;;20.89;93.29
46347;BME280;32057;47.830;19.046;2023-06-14T09:32:24;100063.91;;;21.04;92.11
46347;BME280;32057;47.830;19.046;2023-06-14T09:34:50;100062.16;;;21.05;88.35
46347;BME280;32057;47.830;19.046;2023-06-14T09:37:31;100066.13;;;21.21;92.31
46347;BME280;32057;47.830;19.046;2023-06-14T09:39:58;100061.16;;;21.09;89.47
46347;BME280;32057;47.830;19.046;2023-06-14T09:42:23;100058.69;;;21.03;86.66
46347;BME280;32057;47.830;19.046;2023-06-14T09:44:52;100064.03;;;21.00;88.02
46347;BME280;32057;47.830;19.046;2023-06-14T09:47:18;100061.22;;;21.06;91.87
46347;BME280;32057;47.830;19.046;2023-06-14T09:49:44;100059.50;;;21.05;90.32
46347;BME280;32057;47.830;19.046;2023-06-14T09:52:27;100058.72;;;21.01;92.56
46347;BME280;32057;47.830;19.046;2023-06-14T09:54:54;100055.28;;;20.65;86.01
46347;BME280;32057;47.830;19.046;2023-06-14T09:57:22;100062.16;;;20.71;87.21
46347;BME280;32057;47.830;19.046;2023-06-14T09:59:48;100053.16;;;20.42;83.97
46347;BME280;32057;47.830;19.046;2023-06-14T10:02:29;100050.50;;;20.43;85.44
46347;BME280;32057;47.830;19.046;2023-06-14T10:07:32;100050.69;;;20.34;84.35
46347;BME280;32057;47.830;19.046;2023-06-14T10:10:00;100050.41;;;20.46;87.42
46347;BME280;32057;47.830;19.046;2023-06-14T10:12:26;100051.69;;;20.30;81.45
46347;BME280;32057;47.830;19.046;2023-06-14T10:14:53;100060.31;;;20.37;81.38
46347;BME280;32057;47.830;19.046;2023-06-14T10:17:54;100047.91;;;20.40;82.86
46347;BME280;32057;47.830;19.046;2023-06-14T10:20:33;100046.06;;;20.44;83.65
46347;BME280;32057;47.830;19.046;2023-06-14T10:23:21;100045.09;;;20.46;84.57
46347;BME280;32057;47.830;19.046;2023-06-14T10:25:54;100050.81;;;20.29;82.16
46347;BME280;32057;47.830;19.046;2023-06-14T10:28:21;100047.25;;;20.30;81.28
46347;BME280;32057;47.830;19.046;2023-06-14T10:31:05;100048.69;;;20.45;83.67
46347;BME280;32057;47.830;19.046;2023-06-14T10:33:32;100038.25;;;20.39;84.38
46347;BME280;32057;47.830;19.046;2023-06-14T10:38:36;100048.69;;;20.44;83.04
46347;BME280;32057;47.830;19.046;2023-06-14T10:41:03;100046.59;;;20.57;84.53
46347;BME280;32057;47.830;19.046;2023-06-14T10:43:29;100049.47;;;20.49;80.65
46347;BME280;32057;47.830;19.046;2023-06-14T10:46:17;100046.19;;;20.39;81.01
46347;BME280;32057;47.830;19.046;2023-06-14T10:48:44;100043.00;;;20.61;84.20
46347;BME280;32057;47.830;19.046;2023-06-14T10:51:20;100043.44;;;20.78;80.41
46347;BME280;32057;47.830;19.046;2023-06-14T10:53:49;100043.72;;;21.02;81.53
46347;BME280;32057;47.830;19.046;2023-06-14T10:58:54;100042.47;;;21.15;81.77
46347;BME280;32057;47.830;19.046;2023-06-14T11:01:31;100039.00;;;21.44;85.31
46347;BME280;32057;47.830;19.046;2023-06-14T11:04:06;100036.78;;;21.60;84.75
46347;BME280;32057;47.830;19.046;2023-06-14T11:06:49;100037.63;;;21.31;77.10
46347;BME280;32057;47.830;19.046;2023-06-14T11:11:51;100022.53;;;21.64;84.55
46347;BME280;32057;47.830;19.046;2023-06-14T11:14:19;100026.69;;;21.73;79.62
46347;BME280;32057;47.830;19.046;2023-06-14T11:16:50;100022.72;;;21.58;77.52
46347;BME280;32057;47.830;19.046;2023-06-14T11:19:16;100024.03;;;21.45;79.10
46347;BME280;32057;47.830;19.046;2023-06-14T11:21:47;100021.91;;;21.56;80.96
46347;BME280;32057;47.830;19.046;2023-06-14T11:24:12;100025.81;;;21.73;80.63
46347;BME280;32057;47.830;19.046;2023-06-14T11:26:38;100024.09;;;21.72;80.07
46347;BME280;32057;47.830;19.046;2023-06-14T11:29:03;100022.00;;;21.83;78.60
46347;BME280;32057;47.830;19.046;2023-06-14T11:31:30;100023.91;;;22.06;77.23
46347;BME280;32057;47.830;19.046;2023-06-14T11:33:59;100017.25;;;22.21;73.65
46347;BME280;32057;47.830;19.046;2023-06-14T11:36:29;100018.72;;;22.31;76.94
46347;BME280;32057;47.830;19.046;2023-06-14T11:39:05;100016.38;;;22.20;68.88
46347;BME280;32057;47.830;19.046;2023-06-14T11:41:43;100020.00;;;22.18;67.98
46347;BME280;32057;47.830;19.046;2023-06-14T11:44:09;100017.53;;;22.12;61.33
46347;BME280;32057;47.830;19.046;2023-06-14T11:46:35;100016.00;;;22.04;62.31
46347;BME280;32057;47.830;19.046;2023-06-14T11:49:01;100017.53;;;22.12;63.54
46347;BME280;32057;47.830;19.046;2023-06-14T11:51:32;100010.22;;;22.20;58.26
46347;BME280;32057;47.830;19.046;2023-06-14T11:53:58;100013.69;;;22.22;59.32
46347;BME280;32057;47.830;19.046;2023-06-14T11:56:24;100007.22;;;22.31;61.61
46347;BME280;32057;47.830;19.046;2023-06-14T11:58:51;100010.06;;;22.53;61.18
46347;BME280;32057;47.830;19.046;2023-06-14T12:01:17;100005.22;;;22.64;60.56
46347;BME280;32057;47.830;19.046;2023-06-14T12:03:49;100013.00;;;22.68;59.03
46347;BME280;32057;47.830;19.046;2023-06-14T12:06:15;100007.56;;;22.73;57.22
46347;BME280;32057;47.830;19.046;2023-06-14T12:08:43;100008.69;;;22.66;55.55
46347;BME280;32057;47.830;19.046;2023-06-14T12:11:14;100009.63;;;22.65;58.49
46347;BME280;32057;47.830;19.046;2023-06-14T12:13:41;100010.41;;;22.92;55.29
46347;BME280;32057;47.830;19.046;2023-06-14T12:16:10;100008.75;;;22.90;53.04
46347;BME280;32057;47.830;19.046;2023-06-14T12:18:37;100003.53;;;22.86;51.15
46347;BME280;32057;47.830;19.046;2023-06-14T12:21:05;100004.06;;;22.73;54.36
46347;BME280;32057;47.830;19.046;2023-06-14T12:23:45;99999.38;;;22.54;51.56
46347;BME280;32057;47.830;19.046;2023-06-14T12:26:18;100005.78;;;22.74;50.36
46347;BME280;32057;47.830;19.046;2023-06-14T12:28:45;100002.22;;;22.75;49.58
46347;BME280;32057;47.830;19.046;2023-06-14T12:31:12;100002.63;;;22.87;50.37
46347;BME280;32057;47.830;19.046;2023-06-14T12:33:38;100001.03;;;23.09;54.82
46347;BME280;32057;47.830;19.046;2023-06-14T12:36:08;100001.31;;;22.99;49.95
46347;BME280;32057;47.830;19.046;2023-06-14T12:38:34;99995.88;;;23.04;51.58
46347;BME280;32057;47.830;19.046;2023-06-14T12:41:00;99994.50;;;23.17;51.58
46347;BME280;32057;47.830;19.046;2023-06-14T12:43:25;99999.47;;;22.76;52.96
46347;BME280;32057;47.830;19.046;2023-06-14T12:45:51;99998.44;;;23.07;53.53
46347;BME280;32057;47.830;19.046;2023-06-14T12:48:16;99998.59;;;23.26;52.57
46347;BME280;32057;47.830;19.046;2023-06-14T12:50:42;100004.72;;;23.28;51.41
46347;BME280;32057;47.830;19.046;2023-06-14T12:53:07;100009.50;;;23.18;50.25